Time;durP1;ratioP1;P1;durP2;ratioP2;P2;SDS_P1;SDS_P2;PMS_P1;PMS_P2;Temp;Humidity;BMP_temperature;BMP_pressure;BME280_temperature;BME280_humidity;BME280_pressure;Samples;Min_cycle;Max_cycle;Signal;HPM_P1;HPM_P2
2023/07/16 00:01:29;;;;;;;12.73;8.73;;;;;;;14.54;93.28;99097.28;4955481;28;20058;-66
2023/07/16 00:03:55;;;;;;;13.13;9.10;;;;;;;14.52;93.63;99089.38;4955565;28;20046;-66
2023/07/16 00:06:20;;;;;;;16.25;8.82;;;;;;;14.50;93.58;99091.38;4955393;28;20054;-66
2023/07/16 00:08:45;;;;;;;14.77;8.20;;;;;;;14.49;93.56;99083.47;4948204;28;20043;-66
2023/07/16 00:11:10;;;;;;;14.30;9.00;;;;;;;14.48;93.78;99092.50;4937958;28;20051;-66
2023/07/16 00:13:41;;;;;;;14.15;8.73;;;;;;;14.47;93.98;99101.53;4935768;28;20050;-67
2023/07/16 00:16:06;;;;;;;11.35;8.55;;;;;;;14.45;93.95;99090.94;4935711;28;20047;-65
2023/07/16 00:18:31;;;;;;;14.50;8.95;;;;;;;14.46;93.83;99092.66;4938366;28;20045;-66
2023/07/16 00:20:56;;;;;;;20.70;9.10;;;;;;;14.47;94.02;99075.56;4934619;28;20047;-66
2023/07/16 00:23:21;;;;;;;19.30;8.95;;;;;;;14.48;93.91;99097.88;4939048;28;20039;-66
2023/07/16 00:25:47;;;;;;;13.35;9.20;;;;;;;14.49;94.21;99099.56;4939972;28;20049;-66
2023/07/16 00:28:13;;;;;;;19.35;8.73;;;;;;;14.50;94.16;99111.97;4953974;28;20054;-67
2023/07/16 00:30:38;;;;;;;10.98;7.85;;;;;;;14.50;94.20;99095.88;4939057;28;20402;-68
2023/07/16 00:33:03;;;;;;;12.70;7.78;;;;;;;14.48;94.07;99098.72;4940893;28;20051;-65
2023/07/16 00:35:28;;;;;;;18.48;8.23;;;;;;;14.47;93.93;99098.84;4941508;28;20049;-64
2023/07/16 00:37:54;;;;;;;13.40;9.45;;;;;;;14.45;93.55;99106.19;4942688;28;20042;-66
2023/07/16 00:40:20;;;;;;;17.67;8.95;;;;;;;14.42;94.09;99103.84;4941901;28;20047;-66
2023/07/16 00:42:45;;;;;;;14.65;9.23;;;;;;;14.42;93.94;99104.69;4942871;28;20414;-66
2023/07/16 00:45:14;;;;;;;14.88;7.85;;;;;;;14.43;94.05;99102.84;4956346;28;20066;-66
2023/07/16 00:48:06;;;;;;;10.52;7.60;;;;;;;14.46;93.65;99115.94;4943754;28;20038;-65
2023/07/16 00:50:39;;;;;;;14.10;8.70;;;;;;;14.50;93.84;99117.34;4942390;28;20069;-68
2023/07/16 00:53:08;;;;;;;15.57;8.65;;;;;;;14.53;93.97;99117.06;4946245;28;20038;-65
2023/07/16 00:55:35;;;;;;;11.25;9.18;;;;;;;14.55;93.65;99103.50;4939006;28;20404;-66
2023/07/16 00:58:05;;;;;;;14.02;9.20;;;;;;;14.57;93.50;99106.84;4948313;28;20061;-67
2023/07/16 01:00:31;;;;;;;14.75;8.88;;;;;;;14.59;93.45;99102.19;4958289;28;20057;-64
2023/07/16 01:02:58;;;;;;;11.65;7.75;;;;;;;14.63;93.27;99112.50;4958952;28;20420;-70
2023/07/16 01:05:26;;;;;;;15.57;9.30;;;;;;;14.65;93.18;99121.25;4956969;28;20038;-65
2023/07/16 01:07:59;;;;;;;10.55;7.03;;;;;;;14.73;93.05;99117.81;4958036;28;20050;-66
2023/07/16 01:10:26;;;;;;;14.45;7.75;;;;;;;14.70;92.94;99120.78;4953557;28;20521;-65
2023/07/16 01:12:54;;;;;;;10.88;7.80;;;;;;;14.71;92.86;99115.28;4941178;28;20050;-66
2023/07/16 01:15:20;;;;;;;11.65;8.18;;;;;;;14.72;92.46;99116.13;4955370;28;20053;-66
2023/07/16 01:17:45;;;;;;;11.73;8.25;;;;;;;14.73;92.59;99128.53;4944150;28;20049;-66
2023/07/16 01:20:11;;;;;;;11.20;7.25;;;;;;;14.73;92.02;99123.19;4963284;28;20061;-64
2023/07/16 01:23:14;;;;;;;14.23;8.40;;;;;;;14.76;92.02;99129.09;4957739;28;20042;-67
2023/07/16 01:26:17;;;;;;;11.60;8.40;;;;;;;14.78;91.94;99131.63;4917162;29;20047;-64
2023/07/16 01:28:52;;;;;;;11.32;7.57;;;;;;;14.72;91.83;99143.78;4890885;29;20067;-67
2023/07/16 01:31:17;;;;;;;10.75;7.95;;;;;;;14.65;91.61;99141.84;4898033;29;20047;-65
2023/07/16 01:33:44;;;;;;;10.30;7.10;;;;;;;14.60;91.51;99130.72;4897458;29;20035;-65
2023/07/16 01:36:12;;;;;;;11.70;8.38;;;;;;;14.57;91.55;99131.84;4898085;29;20064;-66
2023/07/16 01:38:38;;;;;;;11.07;8.05;;;;;;;14.55;91.53;99136.53;4882218;29;20396;-68
2023/07/16 01:41:03;;;;;;;18.25;8.77;;;;;;;14.52;92.08;99137.66;4897759;29;20046;-65
2023/07/16 01:43:28;;;;;;;9.05;7.72;;;;;;;14.51;92.05;99135.97;4881996;29;20062;-67
2023/07/16 01:45:54;;;;;;;10.93;7.88;;;;;;;14.51;92.01;99119.03;4881879;29;20144;-65
2023/07/16 01:48:35;;;;;;;12.63;8.10;;;;;;;14.53;92.28;99133.16;4897640;29;20054;-68
2023/07/16 01:51:01;;;;;;;11.85;8.35;;;;;;;14.47;92.28;99133.72;4881820;29;20047;-66
2023/07/16 01:53:27;;;;;;;11.50;7.80;;;;;;;14.46;92.36;99158.84;4897399;29;20054;-66
2023/07/16 01:55:52;;;;;;;12.02;7.72;;;;;;;14.47;92.45;99123.00;4881664;29;20055;-68
2023/07/16 01:58:17;;;;;;;11.32;9.05;;;;;;;14.50;92.89;99136.13;4897524;29;20055;-67
2023/07/16 02:00:43;;;;;;;14.73;8.50;;;;;;;14.55;92.60;99139.22;4881736;29;20110;-68
2023/07/16 02:03:08;;;;;;;10.95;8.02;;;;;;;14.59;92.83;99137.91;4921166;28;20850;-70
2023/07/16 02:05:34;;;;;;;12.70;8.32;;;;;;;14.64;92.74;99150.91;4955718;28;20042;-71
2023/07/16 02:07:59;;;;;;;12.70;8.35;;;;;;;14.69;92.54;99141.41;4956911;28;20069;-71
2023/07/16 02:10:25;;;;;;;15.65;7.50;;;;;;;14.72;92.30;99143.78;4971874;28;20093;-71
2023/07/16 02:12:50;;;;;;;9.50;7.47;;;;;;;14.75;92.38;99148.88;4955724;28;20046;-71
2023/07/16 02:15:17;;;;;;;14.40;8.32;;;;;;;14.80;92.20;99140.34;4955038;28;20050;-72
2023/07/16 02:17:44;;;;;;;13.38;8.40;;;;;;;14.82;92.02;99141.06;4956698;28;20046;-67
2023/07/16 02:20:13;;;;;;;12.18;7.65;;;;;;;14.86;91.93;99139.78;4971949;28;20046;-68
2023/07/16 02:22:38;;;;;;;9.93;7.15;;;;;;;14.89;91.64;99118.88;4971768;28;20057;-68
2023/07/16 02:25:05;;;;;;;9.88;7.50;;;;;;;14.92;91.18;99143.69;4956878;28;20509;-68
2023/07/16 02:27:31;;;;;;;10.02;6.78;;;;;;;14.95;91.08;99144.25;4954606;28;20053;-66
2023/07/16 02:29:57;;;;;;;9.10;7.28;;;;;;;15.00;91.05;99141.13;4956831;28;20035;-66
2023/07/16 02:32:22;;;;;;;8.68;7.10;;;;;;;15.02;90.89;99153.38;4956831;28;20049;-67
2023/07/16 02:34:48;;;;;;;8.48;7.15;;;;;;;15.07;90.41;99152.94;4971827;28;20565;-66
2023/07/16 02:37:13;;;;;;;7.80;6.68;;;;;;;15.13;90.32;99146.97;4945596;28;20062;-69
2023/07/16 02:39:41;;;;;;;10.32;7.82;;;;;;;15.18;90.27;99150.91;4941617;28;20506;-75
2023/07/16 02:42:08;;;;;;;10.90;7.18;;;;;;;15.27;89.90;99146.47;4941418;28;20053;-74
2023/07/16 02:44:33;;;;;;;7.90;6.93;;;;;;;15.33;89.83;99153.91;4938573;28;20042;-70
2023/07/16 02:46:58;;;;;;;10.32;7.93;;;;;;;15.39;89.61;99152.47;4944409;28;20042;-67
2023/07/16 02:49:23;;;;;;;12.10;7.15;;;;;;;15.44;89.16;99151.03;4941282;28;20046;-68
2023/07/16 02:51:49;;;;;;;10.45;7.57;;;;;;;15.50;88.99;99160.28;4940374;28;20053;-66
2023/07/16 02:54:16;;;;;;;10.07;7.45;;;;;;;15.55;88.79;99153.50;4951068;28;20050;-68
2023/07/16 02:56:41;;;;;;;7.80;6.47;;;;;;;15.58;88.51;99157.72;4937774;28;20537;-67
2023/07/16 02:59:06;;;;;;;10.90;7.57;;;;;;;15.65;88.32;99163.34;4942336;28;20042;-66
2023/07/16 03:01:32;;;;;;;12.82;7.50;;;;;;;15.69;87.98;99165.53;4965476;28;20054;-67
2023/07/16 03:03:57;;;;;;;11.35;7.50;;;;;;;15.74;87.93;99151.66;4931114;28;20054;-67
2023/07/16 03:06:22;;;;;;;10.27;6.78;;;;;;;15.80;87.60;99167.19;4943501;28;20053;-70
2023/07/16 03:08:50;;;;;;;15.88;7.28;;;;;;;15.89;87.53;99158.19;4951972;28;20043;-67
2023/07/16 03:11:16;;;;;;;9.95;7.10;;;;;;;15.96;87.13;99167.31;4951913;28;20043;-70
2023/07/16 03:13:41;;;;;;;8.00;6.97;;;;;;;16.05;86.81;99154.75;4926627;28;20054;-69
2023/07/16 03:16:07;;;;;;;9.55;7.38;;;;;;;16.12;86.59;99158.53;4954170;28;20042;-69
2023/07/16 03:18:32;;;;;;;9.07;7.63;;;;;;;16.17;86.26;99158.91;4927634;28;20046;-70
2023/07/16 03:20:58;;;;;;;9.60;7.15;;;;;;;16.22;85.57;99167.34;4946143;28;20046;-70
2023/07/16 03:23:24;;;;;;;10.43;6.75;;;;;;;16.28;85.66;99183.69;4946919;28;20050;-70
2023/07/16 03:25:50;;;;;;;9.18;6.35;;;;;;;16.33;85.30;99181.41;4939707;28;20043;-70
2023/07/16 03:28:15;;;;;;;8.35;7.25;;;;;;;16.40;84.80;99164.59;4951869;28;20066;-69
2023/07/16 03:30:44;;;;;;;10.20;7.25;;;;;;;16.43;84.26;99175.91;4936898;28;20051;-70
2023/07/16 03:33:10;;;;;;;8.43;7.20;;;;;;;16.46;84.14;99174.75;4938820;28;20046;-70
2023/07/16 03:35:35;;;;;;;10.13;8.00;;;;;;;16.47;84.14;99193.44;4971479;28;20057;-70
2023/07/16 03:38:00;;;;;;;9.32;7.25;;;;;;;16.50;83.83;99178.78;4971364;28;20505;-69
2023/07/16 03:40:27;;;;;;;15.43;7.03;;;;;;;16.49;83.99;99207.53;4971096;28;20052;-69
2023/07/16 03:42:52;;;;;;;9.18;7.13;;;;;;;16.48;83.79;99200.47;4971072;28;20390;-69
2023/07/16 03:45:19;;;;;;;8.23;6.90;;;;;;;16.49;83.50;99207.53;4970913;28;20038;-69
2023/07/16 03:47:45;;;;;;;10.07;6.70;;;;;;;16.53;83.79;99181.19;4971030;28;20050;-69
2023/07/16 03:50:12;;;;;;;10.82;6.90;;;;;;;16.56;83.63;99138.66;4955858;28;20046;-68
2023/07/16 03:52:37;;;;;;;13.45;6.70;;;;;;;16.61;83.06;99181.22;4971024;28;20096;-69
2023/07/16 03:55:03;;;;;;;13.35;6.85;;;;;;;16.69;83.15;99189.41;4970704;28;20057;-69
2023/07/16 03:57:30;;;;;;;9.13;6.93;;;;;;;16.79;82.99;99181.19;4956404;28;20050;-68
2023/07/16 03:59:55;;;;;;;13.05;6.75;;;;;;;16.89;82.62;99182.78;4957949;28;20062;-69
2023/07/16 04:02:21;;;;;;;12.68;6.90;;;;;;;17.06;82.70;99184.50;4974849;28;20567;-71
2023/07/16 04:04:46;;;;;;;11.05;7.45;;;;;;;17.23;82.18;99200.75;4974385;28;20061;-70
2023/07/16 04:07:11;;;;;;;8.75;6.75;;;;;;;17.33;81.46;99185.28;4941566;28;20050;-71
2023/07/16 04:09:38;;;;;;;11.98;7.72;;;;;;;17.34;80.78;99186.97;4941816;28;20060;-71
2023/07/16 04:12:04;;;;;;;8.48;7.10;;;;;;;17.32;80.54;99194.38;4959269;28;20042;-71
2023/07/16 04:14:29;;;;;;;8.75;6.72;;;;;;;17.28;80.30;99217.25;4959267;28;20050;-71
2023/07/16 04:16:54;;;;;;;8.35;6.85;;;;;;;17.24;80.02;99192.50;4954644;28;20413;-71
2023/07/16 04:19:19;;;;;;;12.43;9.10;;;;;;;17.20;80.34;99191.13;4954891;28;20050;-71
2023/07/16 04:21:44;;;;;;;10.07;7.30;;;;;;;17.16;80.35;99191.63;4935853;28;20886;-71
2023/07/16 04:24:09;;;;;;;8.77;6.90;;;;;;;17.12;80.73;99193.81;4939755;28;20055;-71
2023/07/16 04:26:35;;;;;;;9.40;7.00;;;;;;;17.10;80.79;99200.34;4972562;28;20046;-71
2023/07/16 04:29:00;;;;;;;9.73;6.78;;;;;;;17.08;80.69;99200.50;4958967;28;20042;-71
2023/07/16 04:31:25;;;;;;;13.48;7.80;;;;;;;17.08;80.96;99203.22;4957831;28;20049;-70
2023/07/16 04:33:50;;;;;;;10.48;6.95;;;;;;;17.08;80.82;99192.44;4958892;28;20042;-69
2023/07/16 04:36:16;;;;;;;10.73;7.78;;;;;;;17.09;80.77;99193.28;4958932;28;20042;-69
2023/07/16 04:38:41;;;;;;;11.13;7.43;;;;;;;17.10;80.54;99203.91;4925509;28;20050;-69
2023/07/16 04:41:06;;;;;;;11.82;7.60;;;;;;;17.08;80.64;99191.59;4958631;28;20053;-69
2023/07/16 04:43:31;;;;;;;12.27;8.07;;;;;;;17.08;80.84;99218.53;4958850;28;20038;-69
2023/07/16 04:46:01;;;;;;;8.63;7.05;;;;;;;17.12;80.96;99188.44;4958861;28;20046;-69
2023/07/16 04:48:26;;;;;;;8.80;7.82;;;;;;;17.18;80.85;99189.59;4957225;28;20050;-69
2023/07/16 04:50:54;;;;;;;10.75;8.10;;;;;;;17.26;80.64;99195.06;4941392;28;20057;-69
2023/07/16 04:53:19;;;;;;;9.85;7.65;;;;;;;17.34;80.81;99186.97;4958710;28;20046;-69
2023/07/16 04:55:45;;;;;;;10.20;7.32;;;;;;;17.39;80.32;99222.34;4973741;28;20432;-68
2023/07/16 04:58:12;;;;;;;14.35;7.93;;;;;;;17.40;80.54;99211.41;4941286;28;20814;-70
2023/07/16 05:00:37;;;;;;;11.80;7.90;;;;;;;17.41;80.22;99199.63;4958640;28;20034;-71
2023/07/16 05:03:02;;;;;;;14.55;8.05;;;;;;;17.41;80.13;99198.78;4958536;28;20054;-70
2023/07/16 05:05:28;;;;;;;17.60;7.35;;;;;;;17.40;80.23;99203.31;4958852;28;20050;-71
2023/07/16 05:07:53;;;;;;;15.23;7.53;;;;;;;17.39;79.93;99204.34;4957511;28;20050;-70
2023/07/16 05:10:18;;;;;;;10.98;6.93;;;;;;;17.38;80.07;99201.84;4958404;28;20054;-70
2023/07/16 05:12:45;;;;;;;13.48;7.47;;;;;;;17.42;80.17;99200.47;4958066;28;20417;-70
2023/07/16 05:15:10;;;;;;;11.30;7.43;;;;;;;17.46;80.44;99201.84;4958306;28;20405;-69
2023/07/16 05:17:36;;;;;;;11.77;8.02;;;;;;;17.54;80.44;99215.34;4958157;28;20053;-69
2023/07/16 05:20:01;;;;;;;12.50;7.22;;;;;;;17.68;80.50;99205.81;4956865;28;20417;-68
2023/07/16 05:22:27;;;;;;;10.88;8.07;;;;;;;17.79;80.09;99202.78;4972612;28;20050;-69
2023/07/16 05:24:52;;;;;;;10.75;7.95;;;;;;;17.91;79.95;99203.31;4958151;28;20445;-69
2023/07/16 05:27:17;;;;;;;11.65;8.23;;;;;;;17.96;79.70;99203.63;4957946;28;20038;-68
2023/07/16 05:29:42;;;;;;;14.02;7.82;;;;;;;17.98;79.11;99212.41;4957941;28;20046;-68
2023/07/16 05:32:08;;;;;;;12.50;8.25;;;;;;;17.94;78.80;99211.94;4958209;28;20898;-67
2023/07/16 05:34:34;;;;;;;13.43;8.10;;;;;;;17.88;78.98;99201.78;4958110;28;20057;-67
2023/07/16 05:36:59;;;;;;;11.85;8.13;;;;;;;17.87;79.39;99210.88;4957548;28;20053;-68
2023/07/16 05:39:24;;;;;;;10.65;7.55;;;;;;;17.87;79.44;99210.88;4957664;28;20046;-67
2023/07/16 05:41:50;;;;;;;13.40;8.80;;;;;;;17.88;79.55;99234.16;4957774;28;20046;-68
2023/07/16 05:44:15;;;;;;;13.38;8.88;;;;;;;17.90;79.29;99215.94;4956153;28;20046;-68
2023/07/16 05:46:40;;;;;;;13.07;7.97;;;;;;;17.95;79.52;99212.72;4957660;28;20053;-71
2023/07/16 05:49:05;;;;;;;12.43;7.70;;;;;;;17.98;79.68;99212.41;4957584;28;20038;-72
2023/07/16 05:51:31;;;;;;;15.05;8.05;;;;;;;18.00;79.36;99237.38;4956371;28;20410;-70
2023/07/16 05:53:56;;;;;;;16.08;9.00;;;;;;;17.97;79.13;99226.91;4955877;28;20050;-72
2023/07/16 05:56:22;;;;;;;11.18;7.95;;;;;;;17.97;79.32;99221.50;4957375;28;20157;-70
2023/07/16 05:58:47;;;;;;;11.85;8.07;;;;;;;17.96;79.52;99198.25;4956269;28;20049;-71
2023/07/16 06:01:12;;;;;;;11.77;8.65;;;;;;;17.98;79.24;99217.81;4957465;28;20061;-71
2023/07/16 06:03:37;;;;;;;15.82;8.18;;;;;;;17.99;79.54;99208.72;4957678;28;20046;-72
2023/07/16 06:06:02;;;;;;;11.18;7.72;;;;;;;18.02;79.51;99213.78;4956915;28;20042;-72
2023/07/16 06:08:28;;;;;;;10.40;8.02;;;;;;;18.08;79.29;99215.78;4957399;28;20049;-71
2023/07/16 06:10:53;;;;;;;9.55;7.53;;;;;;;18.12;79.58;99209.91;4951161;28;20046;-71
2023/07/16 06:13:19;;;;;;;9.10;8.02;;;;;;;18.14;79.25;99209.75;4937912;28;20401;-71
2023/07/16 06:15:44;;;;;;;12.48;8.23;;;;;;;18.18;79.28;99219.16;4936590;28;20066;-72
2023/07/16 06:18:09;;;;;;;11.75;8.02;;;;;;;18.22;79.19;99220.53;4947712;28;20412;-73
2023/07/16 06:20:38;;;;;;;10.15;7.93;;;;;;;18.26;78.78;99216.47;4956915;28;20057;-72
2023/07/16 06:23:04;;;;;;;12.55;7.82;;;;;;;18.30;78.96;99227.75;4971823;28;20493;-72
2023/07/16 06:25:29;;;;;;;10.95;8.68;;;;;;;18.34;78.54;99223.72;4956937;28;20049;-72
2023/07/16 06:27:54;;;;;;;14.70;10.02;;;;;;;18.37;78.53;99228.78;4955083;28;20425;-73
2023/07/16 06:30:19;;;;;;;11.65;9.85;;;;;;;18.43;78.17;99234.34;4956735;28;20046;-72
2023/07/16 06:32:45;;;;;;;12.20;8.77;;;;;;;18.61;78.10;99222.56;4956865;28;20042;-72
2023/07/16 06:35:10;;;;;;;15.30;9.65;;;;;;;18.73;77.39;99223.91;4956559;28;20046;-71
2023/07/16 06:37:35;;;;;;;10.32;7.70;;;;;;;18.90;77.13;99220.13;4957043;28;20096;-72
2023/07/16 06:40:00;;;;;;;9.93;7.35;;;;;;;19.07;76.67;99240.69;4956905;28;20046;-72
2023/07/16 06:42:26;;;;;;;11.18;7.60;;;;;;;19.26;76.31;99225.09;4956542;28;20049;-72
2023/07/16 06:44:52;;;;;;;11.82;8.85;;;;;;;19.39;75.46;99242.44;4971752;28;20041;-71
2023/07/16 06:47:17;;;;;;;10.35;8.48;;;;;;;19.47;74.85;99222.63;4956501;28;20042;-71
2023/07/16 06:49:42;;;;;;;12.13;8.80;;;;;;;19.52;74.87;99225.69;4956425;28;20409;-70
2023/07/16 06:52:08;;;;;;;14.45;9.60;;;;;;;19.56;74.69;99216.19;4971521;28;20038;-71
2023/07/16 06:54:34;;;;;;;10.20;8.80;;;;;;;19.61;74.57;99215.66;4956334;28;20042;-71
2023/07/16 06:57:00;;;;;;;9.73;8.15;;;;;;;19.62;74.36;99203.81;4923048;28;20065;-71
2023/07/16 06:59:25;;;;;;;9.10;7.50;;;;;;;19.76;74.36;99227.38;4956394;28;20046;-71
2023/07/16 07:01:50;;;;;;;10.82;7.35;;;;;;;19.90;74.02;99219.34;4956258;28;20046;-71
2023/07/16 07:04:17;;;;;;;12.00;7.28;;;;;;;20.01;73.47;99217.25;4951766;28;20046;-71
2023/07/16 07:06:42;;;;;;;13.20;6.97;;;;;;;20.07;72.88;99209.28;4936988;28;20508;-72
2023/07/16 07:09:08;;;;;;;7.55;6.68;;;;;;;20.06;72.64;99210.28;4936952;28;20042;-71
2023/07/16 07:11:33;;;;;;;9.38;6.28;;;;;;;20.07;72.87;99220.09;4936968;28;20046;-72
2023/07/16 07:13:58;;;;;;;12.15;7.05;;;;;;;20.03;73.03;99210.63;4948660;28;20050;-72
2023/07/16 07:16:23;;;;;;;9.02;5.78;;;;;;;20.03;72.60;99207.09;4936833;28;20050;-68
2023/07/16 07:18:49;;;;;;;8.93;6.22;;;;;;;20.08;72.47;99220.94;4936748;28;20441;-68
2023/07/16 07:21:14;;;;;;;8.15;5.30;;;;;;;20.08;72.24;99218.22;4936798;28;20046;-70
2023/07/16 07:23:40;;;;;;;8.32;6.22;;;;;;;20.14;72.03;99236.44;4936790;28;20050;-69
2023/07/16 07:26:05;;;;;;;8.00;6.05;;;;;;;20.38;72.13;99213.78;4936786;28;20143;-67
2023/07/16 07:28:30;;;;;;;8.05;5.50;;;;;;;20.55;71.55;99224.25;4935016;28;20047;-67
2023/07/16 07:30:55;;;;;;;6.38;5.40;;;;;;;20.63;70.33;99209.81;4936218;28;20501;-68
2023/07/16 07:33:20;;;;;;;8.15;5.45;;;;;;;20.65;70.67;99219.44;4948271;28;20031;-68
2023/07/16 07:35:46;;;;;;;8.50;5.70;;;;;;;20.63;70.68;99216.09;4954686;28;20048;-70
2023/07/16 07:38:11;;;;;;;6.88;5.20;;;;;;;20.63;70.64;99226.91;4955847;28;20544;-70
2023/07/16 07:40:36;;;;;;;8.05;6.63;;;;;;;20.66;70.66;99210.28;4956085;28;20057;-72
2023/07/16 07:43:01;;;;;;;7.75;5.43;;;;;;;20.70;70.68;99221.59;4954510;28;20858;-72
2023/07/16 07:45:26;;;;;;;8.75;6.15;;;;;;;20.73;70.91;99213.09;4955848;28;20050;-72
2023/07/16 07:47:52;;;;;;;9.55;5.20;;;;;;;20.88;70.81;99219.38;4954100;28;20050;-73
2023/07/16 07:50:17;;;;;;;6.50;5.50;;;;;;;21.03;70.22;99219.38;4970753;28;20050;-72
2023/07/16 07:52:42;;;;;;;10.55;6.53;;;;;;;21.30;69.68;99202.50;4954203;28;20053;-72
2023/07/16 07:55:08;;;;;;;10.40;5.32;;;;;;;21.90;68.98;99235.72;4955522;28;20394;-72
2023/07/16 07:57:34;;;;;;;5.88;5.15;;;;;;;23.27;66.87;99202.63;4955679;28;20409;-73
2023/07/16 07:59:59;;;;;;;9.57;4.78;;;;;;;25.53;62.78;99178.88;4954523;28;20050;-72
2023/07/16 08:02:25;;;;;;;7.30;5.00;;;;;;;28.19;56.15;99201.66;4955618;28;20053;-72
2023/07/16 08:04:54;;;;;;;7.70;5.00;;;;;;;29.66;50.08;99130.13;4955515;28;20053;-70
2023/07/16 08:07:22;;;;;;;6.72;5.07;;;;;;;29.87;48.58;99184.38;4955625;28;20042;-72
2023/07/16 08:09:47;;;;;;;7.15;5.13;;;;;;;29.88;48.10;99219.88;4938136;28;20050;-71
2023/07/16 08:12:13;;;;;;;7.25;5.18;;;;;;;29.64;47.69;99182.56;4955508;28;20409;-71
2023/07/16 08:14:39;;;;;;;10.02;5.43;;;;;;;29.96;47.80;99199.44;4955560;28;20042;-72
2023/07/16 08:17:04;;;;;;;13.05;9.52;;;;;;;30.40;45.69;99181.25;4970577;28;20493;-71
2023/07/16 08:19:30;;;;;;;6.38;5.20;;;;;;;30.06;45.55;99180.38;4954488;28;20057;-72
2023/07/16 08:21:55;;;;;;;7.22;5.63;;;;;;;29.38;46.15;99188.59;4953775;28;20062;-73
2023/07/16 08:24:20;;;;;;;7.13;5.03;;;;;;;28.63;46.96;99204.94;4955576;28;20793;-72
2023/07/16 08:26:45;;;;;;;7.35;4.75;;;;;;;27.95;48.16;99195.22;4951087;28;20055;-71
2023/07/16 08:29:10;;;;;;;4.97;4.47;;;;;;;27.64;49.09;99193.53;4936183;28;20050;-72
2023/07/16 08:31:36;;;;;;;5.65;4.95;;;;;;;28.00;48.72;99189.84;4936115;28;20046;-72
2023/07/16 08:34:01;;;;;;;5.10;4.40;;;;;;;29.34;46.60;99191.00;4940020;28;20823;-71
2023/07/16 08:36:26;;;;;;;5.50;4.80;;;;;;;30.63;43.66;99185.78;4935999;28;20046;-70
2023/07/16 08:38:52;;;;;;;8.35;5.35;;;;;;;31.09;42.51;99186.50;4934343;28;20051;-71
2023/07/16 08:41:17;;;;;;;8.30;6.20;;;;;;;30.83;42.71;99179.75;4935878;28;20041;-70
2023/07/16 08:43:47;;;;;;;7.03;5.20;;;;;;;31.91;40.92;99168.00;4936003;28;20047;-71
2023/07/16 08:46:17;;;;;;;7.75;5.60;;;;;;;33.99;38.11;99174.94;4939430;28;20053;-71
2023/07/16 08:48:44;;;;;;;7.97;6.03;;;;;;;36.00;35.02;99163.84;4954284;28;20058;-70
2023/07/16 08:51:11;;;;;;;6.72;5.32;;;;;;;37.74;32.92;99114.59;4941230;28;20046;-71
2023/07/16 08:53:36;;;;;;;6.35;5.50;;;;;;;39.06;30.49;99103.19;4958629;28;20042;-69
2023/07/16 08:56:05;;;;;;;6.28;5.68;;;;;;;40.00;29.03;99144.44;4957154;28;20051;-71
2023/07/16 08:58:30;;;;;;;6.72;6.03;;;;;;;40.19;28.17;99147.88;4956691;28;20061;-69
2023/07/16 09:00:56;;;;;;;6.28;5.68;;;;;;;39.25;28.60;99100.31;4958261;28;20045;-70
2023/07/16 09:03:21;;;;;;;6.50;5.90;;;;;;;37.50;30.25;99144.38;4958301;28;20046;-70
2023/07/16 09:05:47;;;;;;;5.78;5.28;;;;;;;35.51;32.64;99146.31;4956809;28;20049;-71
2023/07/16 09:08:13;;;;;;;6.55;5.53;;;;;;;33.69;34.57;99138.91;4973287;28;20054;-71
2023/07/16 09:10:40;;;;;;;6.32;5.43;;;;;;;32.17;36.68;99163.56;4958221;28;20038;-71
2023/07/16 09:13:06;;;;;;;14.63;6.55;;;;;;;31.01;38.51;99165.72;4956935;28;20042;-72
2023/07/16 09:15:33;;;;;;;7.07;5.47;;;;;;;31.79;37.99;99160.97;4958091;28;20049;-72
2023/07/16 09:17:58;;;;;;;6.03;5.43;;;;;;;32.45;37.15;99160.53;4940613;28;20050;-71
2023/07/16 09:20:24;;;;;;;6.15;5.38;;;;;;;33.39;36.09;99146.00;4957986;28;20046;-71
2023/07/16 09:22:50;;;;;;;7.15;5.68;;;;;;;34.31;34.98;99146.25;4957863;28;20077;-71
2023/07/16 09:25:16;;;;;;;7.38;5.95;;;;;;;35.45;33.54;99153.81;4958050;28;20053;-71
2023/07/16 09:27:41;;;;;;;5.90;5.40;;;;;;;36.91;30.94;99153.94;4958283;28;20834;-72
2023/07/16 09:30:14;;;;;;;6.60;5.28;;;;;;;38.34;28.93;99152.97;4958185;28;20038;-71
2023/07/16 09:32:41;;;;;;;5.75;5.25;;;;;;;40.19;26.62;99117.16;4972320;28;20038;-71
2023/07/16 09:35:09;;;;;;;10.65;6.13;;;;;;;41.55;25.08;99117.44;4957904;28;20046;-71
2023/07/16 09:37:37;;;;;;;7.00;6.40;;;;;;;42.74;23.90;99109.34;4957529;28;20046;-70
2023/07/16 09:40:03;;;;;;;7.68;6.88;;;;;;;44.01;23.13;99108.22;4957726;28;20045;-71
2023/07/16 09:42:30;;;;;;;8.38;7.60;;;;;;;45.00;22.17;99146.78;4957554;28;20046;-72
2023/07/16 09:45:01;;;;;;;9.40;8.70;;;;;;;45.52;21.43;99132.88;4957375;28;20042;-71
2023/07/16 09:47:29;;;;;;;9.82;9.05;;;;;;;45.90;20.80;99122.03;4956287;28;20056;-72
2023/07/16 09:49:55;;;;;;;10.07;9.27;;;;;;;45.70;20.73;99128.63;4957421;28;20390;-71
2023/07/16 09:52:20;;;;;;;9.40;8.68;;;;;;;44.81;21.40;99136.09;4956153;28;20054;-72
2023/07/16 09:54:47;;;;;;;9.07;8.30;;;;;;;43.97;21.28;99128.91;4956802;28;20045;-72
2023/07/16 09:57:14;;;;;;;8.57;7.97;;;;;;;44.38;21.00;99128.88;4954453;28;20059;-71
2023/07/16 09:59:39;;;;;;;10.10;9.45;;;;;;;45.17;20.61;99132.50;4938072;28;20046;-71
2023/07/16 10:02:07;;;;;;;10.40;9.60;;;;;;;45.56;20.04;99122.56;4952354;28;20054;-71
2023/07/16 10:04:40;;;;;;;9.50;8.52;;;;;;;45.28;19.90;99122.41;4936770;28;20046;-70
2023/07/16 10:07:05;;;;;;;8.55;7.85;;;;;;;43.42;21.48;99113.06;4939290;28;20046;-71
2023/07/16 10:09:51;;;;;;;8.15;7.35;;;;;;;42.32;22.33;99083.06;4957134;28;20057;-71
2023/07/16 10:12:19;;;;;;;9.18;8.48;;;;;;;42.58;22.13;99078.22;4957168;28;20404;-69
2023/07/16 10:14:49;;;;;;;8.43;7.78;;;;;;;43.62;21.76;99078.59;4956990;28;20489;-70
2023/07/16 10:17:15;;;;;;;10.43;9.35;;;;;;;44.39;20.29;99076.28;4956925;28;20409;-70
2023/07/16 10:19:50;;;;;;;8.77;8.15;;;;;;;45.63;20.16;99076.88;4955845;28;20488;-70
2023/07/16 10:22:15;;;;;;;10.73;9.95;;;;;;;46.22;18.97;99106.06;4957041;28;20046;-70
2023/07/16 10:24:41;;;;;;;11.25;10.40;;;;;;;47.32;18.25;99111.06;4955457;28;20058;-69
2023/07/16 10:27:06;;;;;;;13.43;12.63;;;;;;;47.75;17.89;99126.25;4956967;28;20386;-69
2023/07/16 10:29:31;;;;;;;13.90;12.90;;;;;;;48.25;17.72;99100.69;4956889;28;20093;-70
2023/07/16 10:31:58;;;;;;;14.45;13.55;;;;;;;47.84;17.88;99129.69;4971926;28;20049;-70
2023/07/16 10:34:25;;;;;;;11.88;11.07;;;;;;;45.69;18.82;99134.63;4956835;28;20042;-70
2023/07/16 10:36:50;;;;;;;10.43;9.50;;;;;;;42.98;20.54;99111.59;4939396;28;20042;-70
2023/07/16 10:39:16;;;;;;;8.45;7.85;;;;;;;40.45;22.76;99111.78;4956770;28;20057;-70
2023/07/16 10:41:41;;;;;;;7.65;6.95;;;;;;;38.34;25.07;99100.88;4956841;28;20042;-72
2023/07/16 10:44:13;;;;;;;6.93;6.05;;;;;;;36.54;27.02;99109.28;4971810;28;20046;-70
2023/07/16 10:46:42;;;;;;;5.60;5.10;;;;;;;34.76;28.33;99110.25;4956605;28;20049;-71
2023/07/16 10:49:07;;;;;;;5.30;4.80;;;;;;;33.31;29.92;99112.50;4956391;28;20477;-69
2023/07/16 10:51:33;;;;;;;6.50;5.13;;;;;;;32.08;31.66;99110.81;4956770;28;20501;-69
2023/07/16 10:53:58;;;;;;;7.82;5.03;;;;;;;31.06;33.06;99102.47;4955095;28;20042;-74
2023/07/16 10:56:23;;;;;;;8.38;4.60;;;;;;;30.27;34.35;99110.06;4956149;28;20062;-70
2023/07/16 10:58:49;;;;;;;5.40;4.90;;;;;;;29.59;35.54;99108.28;4956468;28;20038;-69
2023/07/16 11:01:14;;;;;;;6.10;4.95;;;;;;;29.04;36.03;99111.53;4971518;28;20075;-69
2023/07/16 11:03:40;;;;;;;5.53;4.50;;;;;;;28.61;36.85;99122.88;4955176;28;20050;-69
2023/07/16 11:06:11;;;;;;;5.38;4.88;;;;;;;28.32;38.11;99107.41;4953121;28;20034;-69
2023/07/16 11:08:37;;;;;;;5.53;4.82;;;;;;;27.85;39.01;99126.47;4951813;28;20058;-69
2023/07/16 11:11:02;;;;;;;4.75;4.25;;;;;;;27.45;40.37;99113.28;4936960;28;20053;-69
2023/07/16 11:13:28;;;;;;;7.10;4.25;;;;;;;27.08;40.86;99107.03;4936878;28;20043;-69
2023/07/16 11:15:54;;;;;;;5.85;4.53;;;;;;;26.74;41.46;99093.94;4944903;28;20041;-71
2023/07/16 11:18:25;;;;;;;5.63;4.45;;;;;;;26.41;42.02;99107.13;4952696;28;20053;-72
2023/07/16 11:20:53;;;;;;;6.97;5.05;;;;;;;26.11;42.34;99115.09;4970731;28;20073;-71
2023/07/16 11:23:19;;;;;;;6.97;4.70;;;;;;;25.95;42.08;99102.84;4955265;28;20520;-72
2023/07/16 11:25:48;;;;;;;5.45;4.47;;;;;;;25.83;43.04;99124.56;4957888;28;20054;-71